sensor_id;sensor_type;location;lat;lon;timestamp;temperature;humidity
51996;DHT22;38010;53.264;6.592;2023-04-16T00:01:13;14.70;99.90
51996;DHT22;38010;53.264;6.592;2023-04-16T00:03:39;14.70;99.90
51996;DHT22;38010;53.264;6.592;2023-04-16T00:06:04;14.60;99.90
51996;DHT22;38010;53.264;6.592;2023-04-16T00:08:30;14.60;99.90
51996;DHT22;38010;53.264;6.592;2023-04-16T00:10:56;14.70;99.90
51996;DHT22;38010;53.264;6.592;2023-04-16T00:13:21;14.60;99.90
51996;DHT22;38010;53.264;6.592;2023-04-16T00:15:47;14.70;99.90
51996;DHT22;38010;53.264;6.592;2023-04-16T00:18:13;14.70;99.90
51996;DHT22;38010;53.264;6.592;2023-04-16T00:20:39;14.60;99.90
51996;DHT22;38010;53.264;6.592;2023-04-16T00:23:04;14.60;99.90
51996;DHT22;38010;53.264;6.592;2023-04-16T00:25:30;14.60;99.90
51996;DHT22;38010;53.264;6.592;2023-04-16T00:27:56;14.60;99.90
51996;DHT22;38010;53.264;6.592;2023-04-16T00:30:21;14.60;99.90
51996;DHT22;38010;53.264;6.592;2023-04-16T00:32:47;14.60;99.90
51996;DHT22;38010;53.264;6.592;2023-04-16T00:35:13;14.50;99.90
51996;DHT22;38010;53.264;6.592;2023-04-16T00:37:38;14.60;99.90
51996;DHT22;38010;53.264;6.592;2023-04-16T00:40:05;14.50;99.90
51996;DHT22;38010;53.264;6.592;2023-04-16T00:42:31;14.60;99.90
51996;DHT22;38010;53.264;6.592;2023-04-16T00:44:56;14.50;99.90
51996;DHT22;38010;53.264;6.592;2023-04-16T00:47:22;14.60;99.90
51996;DHT22;38010;53.264;6.592;2023-04-16T00:49:48;14.50;99.90
51996;DHT22;38010;53.264;6.592;2023-04-16T00:52:14;14.50;99.90
51996;DHT22;38010;53.264;6.592;2023-04-16T00:54:40;14.50;99.90
51996;DHT22;38010;53.264;6.592;2023-04-16T00:57:06;14.50;99.90
51996;DHT22;38010;53.264;6.592;2023-04-16T00:59:32;14.50;99.90
51996;DHT22;38010;53.264;6.592;2023-04-16T01:01:57;14.50;99.90
51996;DHT22;38010;53.264;6.592;2023-04-16T01:04:23;14.50;99.90
51996;DHT22;38010;53.264;6.592;2023-04-16T01:06:49;14.50;99.90
51996;DHT22;38010;53.264;6.592;2023-04-16T01:09:16;14.50;99.90
51996;DHT22;38010;53.264;6.592;2023-04-16T01:11:41;14.40;99.90
51996;DHT22;38010;53.264;6.592;2023-04-16T01:14:07;14.50;99.90
51996;DHT22;38010;53.264;6.592;2023-04-16T01:16:33;14.50;99.90
51996;DHT22;38010;53.264;6.592;2023-04-16T01:18:59;14.40;99.90
51996;DHT22;38010;53.264;6.592;2023-04-16T01:21:24;14.50;99.90
51996;DHT22;38010;53.264;6.592;2023-04-16T01:23:50;14.50;99.90
51996;DHT22;38010;53.264;6.592;2023-04-16T01:26:16;14.50;99.90
51996;DHT22;38010;53.264;6.592;2023-04-16T05:29:57;13.90;99.90
51996;DHT22;38010;53.264;6.592;2023-04-16T05:32:24;14.00;99.90
51996;DHT22;38010;53.264;6.592;2023-04-16T05:34:50;14.00;99.90
51996;DHT22;38010;53.264;6.592;2023-04-16T05:37:16;14.00;99.90
51996;DHT22;38010;53.264;6.592;2023-04-16T05:39:42;14.00;99.90
51996;DHT22;38010;53.264;6.592;2023-04-16T05:42:07;14.00;99.90
51996;DHT22;38010;53.264;6.592;2023-04-16T05:44:33;14.00;99.90
51996;DHT22;38010;53.264;6.592;2023-04-16T05:46:59;14.00;99.90
51996;DHT22;38010;53.264;6.592;2023-04-16T05:49:24;14.00;99.90
51996;DHT22;38010;53.264;6.592;2023-04-16T05:51:50;14.00;99.90
51996;DHT22;38010;53.264;6.592;2023-04-16T05:54:16;14.00;99.90
51996;DHT22;38010;53.264;6.592;2023-04-16T05:56:42;14.00;99.90
51996;DHT22;38010;53.264;6.592;2023-04-16T05:59:07;14.00;99.90
51996;DHT22;38010;53.264;6.592;2023-04-16T06:01:33;14.00;99.90
51996;DHT22;38010;53.264;6.592;2023-04-16T06:03:59;14.00;99.90
51996;DHT22;38010;53.264;6.592;2023-04-16T06:06:24;14.00;99.90
51996;DHT22;38010;53.264;6.592;2023-04-16T06:08:51;14.00;99.90
51996;DHT22;38010;53.264;6.592;2023-04-16T06:11:18;14.00;99.90
51996;DHT22;38010;53.264;6.592;2023-04-16T06:13:43;14.00;99.90
51996;DHT22;38010;53.264;6.592;2023-04-16T06:16:09;14.00;99.90
51996;DHT22;38010;53.264;6.592;2023-04-16T06:18:36;14.00;99.90
51996;DHT22;38010;53.264;6.592;2023-04-16T06:21:02;14.00;99.90
51996;DHT22;38010;53.264;6.592;2023-04-16T06:23:28;14.00;99.90
51996;DHT22;38010;53.264;6.592;2023-04-16T06:25:54;14.00;99.90
51996;DHT22;38010;53.264;6.592;2023-04-16T06:28:20;14.00;99.90
51996;DHT22;38010;53.264;6.592;2023-04-16T06:30:46;14.00;99.90
51996;DHT22;38010;53.264;6.592;2023-04-16T06:33:12;14.00;99.90
51996;DHT22;38010;53.264;6.592;2023-04-16T06:35:38;14.00;99.90
51996;DHT22;38010;53.264;6.592;2023-04-16T06:38:03;14.00;99.90
51996;DHT22;38010;53.264;6.592;2023-04-16T06:40:29;14.00;99.90
51996;DHT22;38010;53.264;6.592;2023-04-16T06:42:55;14.00;99.90
51996;DHT22;38010;53.264;6.592;2023-04-16T06:45:20;14.00;99.90
51996;DHT22;38010;53.264;6.592;2023-04-16T06:47:46;14.00;99.90
51996;DHT22;38010;53.264;6.592;2023-04-16T06:50:12;14.00;99.90
51996;DHT22;38010;53.264;6.592;2023-04-16T06:52:38;14.00;99.90
51996;DHT22;38010;53.264;6.592;2023-04-16T06:55:04;14.00;99.90
51996;DHT22;38010;53.264;6.592;2023-04-16T06:57:31;14.00;99.90
51996;DHT22;38010;53.264;6.592;2023-04-16T06:59:57;14.00;99.90
51996;DHT22;38010;53.264;6.592;2023-04-16T07:02:23;14.00;99.90
51996;DHT22;38010;53.264;6.592;2023-04-16T07:04:48;14.00;99.90
51996;DHT22;38010;53.264;6.592;2023-04-16T07:07:14;14.00;99.90
51996;DHT22;38010;53.264;6.592;2023-04-16T07:09:40;14.00;99.90
51996;DHT22;38010;53.264;6.592;2023-04-16T07:12:06;14.00;99.90
51996;DHT22;38010;53.264;6.592;2023-04-16T07:14:32;14.00;99.90
51996;DHT22;38010;53.264;6.592;2023-04-16T07:16:58;14.00;99.90
51996;DHT22;38010;53.264;6.592;2023-04-16T07:19:24;14.00;99.90
51996;DHT22;38010;53.264;6.592;2023-04-16T07:21:50;14.00;99.90
51996;DHT22;38010;53.264;6.592;2023-04-16T07:24:16;14.00;99.90
51996;DHT22;38010;53.264;6.592;2023-04-16T07:26:42;14.00;99.90
51996;DHT22;38010;53.264;6.592;2023-04-16T07:29:07;14.00;99.90
51996;DHT22;38010;53.264;6.592;2023-04-16T07:31:33;14.00;99.90
51996;DHT22;38010;53.264;6.592;2023-04-16T07:34:00;14.00;99.90
51996;DHT22;38010;53.264;6.592;2023-04-16T07:36:26;14.00;99.90
51996;DHT22;38010;53.264;6.592;2023-04-16T07:38:52;14.00;99.90
51996;DHT22;38010;53.264;6.592;2023-04-16T07:41:18;14.00;99.90
51996;DHT22;38010;53.264;6.592;2023-04-16T07:43:44;14.00;99.90
51996;DHT22;38010;53.264;6.592;2023-04-16T07:46:09;14.10;99.90
51996;DHT22;38010;53.264;6.592;2023-04-16T07:48:35;14.10;99.90
51996;DHT22;38010;53.264;6.592;2023-04-16T07:51:01;14.10;99.90
51996;DHT22;38010;53.264;6.592;2023-04-16T07:53:27;14.10;99.90
51996;DHT22;38010;53.264;6.592;2023-04-16T07:55:52;14.10;99.90
51996;DHT22;38010;53.264;6.592;2023-04-16T07:58:18;14.10;99.90
51996;DHT22;38010;53.264;6.592;2023-04-16T08:00:44;14.10;99.90
51996;DHT22;38010;53.264;6.592;2023-04-16T08:03:10;14.10;99.90
51996;DHT22;38010;53.264;6.592;2023-04-16T08:05:35;14.10;99.90
51996;DHT22;38010;53.264;6.592;2023-04-16T08:08:01;14.10;99.90
51996;DHT22;38010;53.264;6.592;2023-04-16T08:10:27;14.10;99.90
51996;DHT22;38010;53.264;6.592;2023-04-16T08:12:53;14.10;99.90
51996;DHT22;38010;53.264;6.592;2023-04-16T08:15:19;14.10;99.90
51996;DHT22;38010;53.264;6.592;2023-04-16T08:17:44;14.10;99.90
51996;DHT22;38010;53.264;6.592;2023-04-16T08:20:10;14.10;99.90
51996;DHT22;38010;53.264;6.592;2023-04-16T08:22:36;14.10;99.90
51996;DHT22;38010;53.264;6.592;2023-04-16T08:25:02;14.10;99.90
51996;DHT22;38010;53.264;6.592;2023-04-16T08:27:28;14.10;99.90
51996;DHT22;38010;53.264;6.592;2023-04-16T08:29:54;14.20;99.90
51996;DHT22;38010;53.264;6.592;2023-04-16T08:32:20;14.20;99.90
51996;DHT22;38010;53.264;6.592;2023-04-16T08:34:46;14.20;99.90
51996;DHT22;38010;53.264;6.592;2023-04-16T08:37:11;14.20;99.90
51996;DHT22;38010;53.264;6.592;2023-04-16T08:39:37;14.20;99.90
51996;DHT22;38010;53.264;6.592;2023-04-16T08:42:04;14.20;99.90
51996;DHT22;38010;53.264;6.592;2023-04-16T08:44:36;14.20;99.90
51996;DHT22;38010;53.264;6.592;2023-04-16T08:47:08;14.20;99.90
51996;DHT22;38010;53.264;6.592;2023-04-16T08:49:42;14.30;99.90
51996;DHT22;38010;53.264;6.592;2023-04-16T08:52:09;14.30;99.90
51996;DHT22;38010;53.264;6.592;2023-04-16T08:54:54;14.30;99.90
51996;DHT22;38010;53.264;6.592;2023-04-16T08:57:23;14.30;99.90
51996;DHT22;38010;53.264;6.592;2023-04-16T08:59:50;14.30;99.90
51996;DHT22;38010;53.264;6.592;2023-04-16T09:02:18;14.30;99.90
51996;DHT22;38010;53.264;6.592;2023-04-16T09:04:44;14.30;99.90
51996;DHT22;38010;53.264;6.592;2023-04-16T09:07:11;14.30;99.90
51996;DHT22;38010;53.264;6.592;2023-04-16T09:09:37;14.30;99.90
51996;DHT22;38010;53.264;6.592;2023-04-16T09:12:04;14.30;99.90
51996;DHT22;38010;53.264;6.592;2023-04-16T09:14:30;14.30;99.90
51996;DHT22;38010;53.264;6.592;2023-04-16T09:16:57;14.30;99.90
51996;DHT22;38010;53.264;6.592;2023-04-16T09:19:25;14.30;99.90
51996;DHT22;38010;53.264;6.592;2023-04-16T09:21:51;14.40;99.90
51996;DHT22;38010;53.264;6.592;2023-04-16T09:24:17;14.40;99.90
51996;DHT22;38010;53.264;6.592;2023-04-16T09:26:44;14.40;99.90
51996;DHT22;38010;53.264;6.592;2023-04-16T09:29:10;14.40;99.90
51996;DHT22;38010;53.264;6.592;2023-04-16T09:31:36;14.40;99.90
51996;DHT22;38010;53.264;6.592;2023-04-16T09:34:07;14.40;99.90
51996;DHT22;38010;53.264;6.592;2023-04-16T09:36:33;14.40;99.90
51996;DHT22;38010;53.264;6.592;2023-04-16T09:39:00;14.40;99.90
51996;DHT22;38010;53.264;6.592;2023-04-16T09:41:31;14.40;99.90
51996;DHT22;38010;53.264;6.592;2023-04-16T09:44:00;14.40;99.90
51996;DHT22;38010;53.264;6.592;2023-04-16T09:46:31;14.40;99.90
51996;DHT22;38010;53.264;6.592;2023-04-16T09:49:04;14.40;99.90
51996;DHT22;38010;53.264;6.592;2023-04-16T09:51:36;14.40;99.90
51996;DHT22;38010;53.264;6.592;2023-04-16T09:54:04;14.40;99.90
51996;DHT22;38010;53.264;6.592;2023-04-16T09:56:30;14.40;99.90
51996;DHT22;38010;53.264;6.592;2023-04-16T09:58:58;14.40;99.90
51996;DHT22;38010;53.264;6.592;2023-04-16T10:01:24;14.40;99.90
51996;DHT22;38010;53.264;6.592;2023-04-16T10:03:53;14.40;99.90
51996;DHT22;38010;53.264;6.592;2023-04-16T10:06:21;14.40;99.90
51996;DHT22;38010;53.264;6.592;2023-04-16T10:08:47;14.50;99.90
51996;DHT22;38010;53.264;6.592;2023-04-16T10:11:17;14.50;99.90
51996;DHT22;38010;53.264;6.592;2023-04-16T10:13:43;14.40;99.90
51996;DHT22;38010;53.264;6.592;2023-04-16T10:16:09;14.50;99.90
51996;DHT22;38010;53.264;6.592;2023-04-16T10:18:40;14.50;99.90
51996;DHT22;38010;53.264;6.592;2023-04-16T10:21:06;14.50;99.90
51996;DHT22;38010;53.264;6.592;2023-04-16T10:23:33;14.50;99.90
51996;DHT22;38010;53.264;6.592;2023-04-16T10:26:00;14.50;99.90
51996;DHT22;38010;53.264;6.592;2023-04-16T10:28:27;14.50;99.90
51996;DHT22;38010;53.264;6.592;2023-04-16T10:30:55;14.50;99.90
51996;DHT22;38010;53.264;6.592;2023-04-16T10:33:24;14.50;99.90
51996;DHT22;38010;53.264;6.592;2023-04-16T10:35:52;14.50;99.90
51996;DHT22;38010;53.264;6.592;2023-04-16T10:38:31;14.50;99.90
51996;DHT22;38010;53.264;6.592;2023-04-16T10:41:01;14.60;99.90
51996;DHT22;38010;53.264;6.592;2023-04-16T10:43:28;14.60;99.90
51996;DHT22;38010;53.264;6.592;2023-04-16T10:45:54;14.50;99.90
51996;DHT22;38010;53.264;6.592;2023-04-16T10:48:20;14.60;99.90
51996;DHT22;38010;53.264;6.592;2023-04-16T10:50:56;14.60;99.90
51996;DHT22;38010;53.264;6.592;2023-04-16T10:53:24;14.60;99.90
51996;DHT22;38010;53.264;6.592;2023-04-16T10:56:10;14.60;99.90
51996;DHT22;38010;53.264;6.592;2023-04-16T10:58:40;14.60;99.90
51996;DHT22;38010;53.264;6.592;2023-04-16T11:01:10;14.60;99.90
51996;DHT22;38010;53.264;6.592;2023-04-16T11:03:41;14.60;99.90
51996;DHT22;38010;53.264;6.592;2023-04-16T11:06:15;14.70;99.90
51996;DHT22;38010;53.264;6.592;2023-04-16T11:08:45;14.70;99.90
51996;DHT22;38010;53.264;6.592;2023-04-16T11:11:11;14.60;99.90
51996;DHT22;38010;53.264;6.592;2023-04-16T11:13:38;14.60;99.90
51996;DHT22;38010;53.264;6.592;2023-04-16T11:16:06;14.60;99.90
51996;DHT22;38010;53.264;6.592;2023-04-16T11:18:32;14.60;99.90
51996;DHT22;38010;53.264;6.592;2023-04-16T11:20:58;14.70;99.90
51996;DHT22;38010;53.264;6.592;2023-04-16T11:23:24;14.70;99.90
51996;DHT22;38010;53.264;6.592;2023-04-16T11:25:50;14.70;99.90
51996;DHT22;38010;53.264;6.592;2023-04-16T11:28:31;14.70;99.90
51996;DHT22;38010;53.264;6.592;2023-04-16T11:30:57;14.70;99.90
51996;DHT22;38010;53.264;6.592;2023-04-16T11:33:24;14.70;99.90
51996;DHT22;38010;53.264;6.592;2023-04-16T11:35:56;14.80;99.90
51996;DHT22;38010;53.264;6.592;2023-04-16T11:38:32;14.80;99.90
51996;DHT22;38010;53.264;6.592;2023-04-16T11:40:59;14.80;99.90
51996;DHT22;38010;53.264;6.592;2023-04-16T11:43:25;14.80;99.90
51996;DHT22;38010;53.264;6.592;2023-04-16T11:45:59;14.70;99.90
51996;DHT22;38010;53.264;6.592;2023-04-16T11:48:30;14.80;99.90
51996;DHT22;38010;53.264;6.592;2023-04-16T11:51:11;14.80;99.90
51996;DHT22;38010;53.264;6.592;2023-04-16T11:53:47;14.70;99.90
51996;DHT22;38010;53.264;6.592;2023-04-16T11:56:13;14.70;99.90
51996;DHT22;38010;53.264;6.592;2023-04-16T11:58:40;14.70;99.90
51996;DHT22;38010;53.264;6.592;2023-04-16T12:01:07;14.80;99.90
51996;DHT22;38010;53.264;6.592;2023-04-16T12:03:41;14.70;99.90
51996;DHT22;38010;53.264;6.592;2023-04-16T12:06:10;14.80;99.90
51996;DHT22;38010;53.264;6.592;2023-04-16T12:08:36;14.80;99.90
51996;DHT22;38010;53.264;6.592;2023-04-16T12:11:02;14.80;99.90
51996;DHT22;38010;53.264;6.592;2023-04-16T12:13:28;14.80;99.90
51996;DHT22;38010;53.264;6.592;2023-04-16T12:15:55;14.80;99.90
51996;DHT22;38010;53.264;6.592;2023-04-16T12:18:24;14.80;99.90
51996;DHT22;38010;53.264;6.592;2023-04-16T12:20:51;14.80;99.90
51996;DHT22;38010;53.264;6.592;2023-04-16T12:23:31;14.80;99.90
51996;DHT22;38010;53.264;6.592;2023-04-16T12:25:58;14.80;99.90
51996;DHT22;38010;53.264;6.592;2023-04-16T12:28:35;14.80;99.90
51996;DHT22;38010;53.264;6.592;2023-04-16T12:31:03;14.80;99.90
51996;DHT22;38010;53.264;6.592;2023-04-16T12:33:30;14.90;99.90
51996;DHT22;38010;53.264;6.592;2023-04-16T12:35:57;14.90;99.90
51996;DHT22;38010;53.264;6.592;2023-04-16T12:38:24;14.90;99.90
51996;DHT22;38010;53.264;6.592;2023-04-16T12:40:51;14.90;99.90
51996;DHT22;38010;53.264;6.592;2023-04-16T12:43:16;14.90;99.90
51996;DHT22;38010;53.264;6.592;2023-04-16T12:45:42;15.00;99.90
51996;DHT22;38010;53.264;6.592;2023-04-16T12:48:08;14.90;99.90
51996;DHT22;38010;53.264;6.592;2023-04-16T12:50:33;14.90;99.90
51996;DHT22;38010;53.264;6.592;2023-04-16T12:52:59;14.90;99.90
51996;DHT22;38010;53.264;6.592;2023-04-16T12:55:25;14.90;99.90
51996;DHT22;38010;53.264;6.592;2023-04-16T12:57:51;14.90;99.90
51996;DHT22;38010;53.264;6.592;2023-04-16T13:00:18;14.80;99.90
51996;DHT22;38010;53.264;6.592;2023-04-16T13:02:44;14.80;99.90
51996;DHT22;38010;53.264;6.592;2023-04-16T13:05:10;14.80;99.90
51996;DHT22;38010;53.264;6.592;2023-04-16T13:07:36;14.80;99.90
51996;DHT22;38010;53.264;6.592;2023-04-16T13:10:01;14.80;99.90
51996;DHT22;38010;53.264;6.592;2023-04-16T13:12:27;14.80;99.90
51996;DHT22;38010;53.264;6.592;2023-04-16T13:14:54;14.80;99.90
51996;DHT22;38010;53.264;6.592;2023-04-16T13:17:20;14.80;99.90
51996;DHT22;38010;53.264;6.592;2023-04-16T13:19:46;14.70;99.90
51996;DHT22;38010;53.264;6.592;2023-04-16T13:22:12;14.80;99.90
51996;DHT22;38010;53.264;6.592;2023-04-16T13:24:37;14.70;99.90
51996;DHT22;38010;53.264;6.592;2023-04-16T13:27:04;14.70;99.90
51996;DHT22;38010;53.264;6.592;2023-04-16T13:29:30;14.70;99.90
51996;DHT22;38010;53.264;6.592;2023-04-16T13:31:56;14.80;99.90
51996;DHT22;38010;53.264;6.592;2023-04-16T13:34:22;14.80;99.90
51996;DHT22;38010;53.264;6.592;2023-04-16T13:36:47;14.70;99.90
51996;DHT22;38010;53.264;6.592;2023-04-16T13:39:13;14.70;99.90
51996;DHT22;38010;53.264;6.592;2023-04-16T13:41:40;14.80;99.90
51996;DHT22;38010;53.264;6.592;2023-04-16T13:44:06;14.80;99.90
51996;DHT22;38010;53.264;6.592;2023-04-16T13:46:32;14.80;99.90
51996;DHT22;38010;53.264;6.592;2023-04-16T13:48:58;14.70;99.90
51996;DHT22;38010;53.264;6.592;2023-04-16T13:51:23;14.80;99.90
51996;DHT22;38010;53.264;6.592;2023-04-16T13:53:49;14.80;99.90
51996;DHT22;38010;53.264;6.592;2023-04-16T13:56:15;14.80;99.90
51996;DHT22;38010;53.264;6.592;2023-04-16T13:58:41;14.80;99.90
51996;DHT22;38010;53.264;6.592;2023-04-16T14:01:08;14.80;99.90
51996;DHT22;38010;53.264;6.592;2023-04-16T14:03:34;14.90;99.90
51996;DHT22;38010;53.264;6.592;2023-04-16T14:06:02;15.00;99.90
51996;DHT22;38010;53.264;6.592;2023-04-16T14:08:29;15.10;99.90
51996;DHT22;38010;53.264;6.592;2023-04-16T14:10:56;15.20;99.90
51996;DHT22;38010;53.264;6.592;2023-04-16T14:13:22;15.30;99.90
51996;DHT22;38010;53.264;6.592;2023-04-16T14:15:48;15.30;99.90
51996;DHT22;38010;53.264;6.592;2023-04-16T14:18:14;15.30;99.90
51996;DHT22;38010;53.264;6.592;2023-04-16T14:20:40;15.40;99.90
51996;DHT22;38010;53.264;6.592;2023-04-16T14:23:05;15.50;99.90
51996;DHT22;38010;53.264;6.592;2023-04-16T14:25:32;15.50;99.90
51996;DHT22;38010;53.264;6.592;2023-04-16T14:27:58;15.50;99.90
51996;DHT22;38010;53.264;6.592;2023-04-16T14:30:25;15.50;99.90
51996;DHT22;38010;53.264;6.592;2023-04-16T14:32:51;15.60;99.90
51996;DHT22;38010;53.264;6.592;2023-04-16T14:35:17;15.60;99.90
51996;DHT22;38010;53.264;6.592;2023-04-16T14:37:43;15.70;99.90
51996;DHT22;38010;53.264;6.592;2023-04-16T14:40:09;15.80;99.90
51996;DHT22;38010;53.264;6.592;2023-04-16T14:42:36;15.80;99.90
51996;DHT22;38010;53.264;6.592;2023-04-16T14:45:02;15.90;99.90
51996;DHT22;38010;53.264;6.592;2023-04-16T14:47:31;16.00;99.90
51996;DHT22;38010;53.264;6.592;2023-04-16T14:49:58;16.00;99.90
51996;DHT22;38010;53.264;6.592;2023-04-16T14:52:24;15.90;99.90
51996;DHT22;38010;53.264;6.592;2023-04-16T14:54:50;15.90;99.90
51996;DHT22;38010;53.264;6.592;2023-04-16T14:57:16;15.90;99.90
51996;DHT22;38010;53.264;6.592;2023-04-16T14:59:42;15.90;99.90
51996;DHT22;38010;53.264;6.592;2023-04-16T15:02:08;15.90;99.90
51996;DHT22;38010;53.264;6.592;2023-04-16T15:04:35;15.80;99.90
51996;DHT22;38010;53.264;6.592;2023-04-16T15:07:00;15.70;99.90
51996;DHT22;38010;53.264;6.592;2023-04-16T15:09:26;15.70;99.90
51996;DHT22;38010;53.264;6.592;2023-04-16T15:11:52;15.70;99.90
51996;DHT22;38010;53.264;6.592;2023-04-16T15:14:18;15.60;99.90
51996;DHT22;38010;53.264;6.592;2023-04-16T15:16:45;15.60;99.90
51996;DHT22;38010;53.264;6.592;2023-04-16T15:19:11;15.50;99.90
51996;DHT22;38010;53.264;6.592;2023-04-16T15:21:37;15.50;99.90
51996;DHT22;38010;53.264;6.592;2023-04-16T15:24:03;15.50;99.90
51996;DHT22;38010;53.264;6.592;2023-04-16T15:26:29;15.40;99.90
51996;DHT22;38010;53.264;6.592;2023-04-16T15:28:55;15.40;99.90
51996;DHT22;38010;53.264;6.592;2023-04-16T15:31:20;15.40;99.90
51996;DHT22;38010;53.264;6.592;2023-04-16T15:33:47;15.40;99.90
51996;DHT22;38010;53.264;6.592;2023-04-16T15:36:12;15.40;99.90
51996;DHT22;38010;53.264;6.592;2023-04-16T15:38:39;15.40;99.90
51996;DHT22;38010;53.264;6.592;2023-04-16T15:41:07;15.40;99.90
51996;DHT22;38010;53.264;6.592;2023-04-16T15:43:33;15.30;99.90
51996;DHT22;38010;53.264;6.592;2023-04-16T15:45:59;15.30;99.90
51996;DHT22;38010;53.264;6.592;2023-04-16T15:48:24;15.30;99.90
51996;DHT22;38010;53.264;6.592;2023-04-16T15:50:50;15.30;99.90
51996;DHT22;38010;53.264;6.592;2023-04-16T15:53:17;15.30;99.90
51996;DHT22;38010;53.264;6.592;2023-04-16T15:55:42;15.30;99.90
51996;DHT22;38010;53.264;6.592;2023-04-16T15:58:08;15.20;99.90
51996;DHT22;38010;53.264;6.592;2023-04-16T16:00:34;15.20;99.90
51996;DHT22;38010;53.264;6.592;2023-04-16T16:03:00;15.20;99.90
51996;DHT22;38010;53.264;6.592;2023-04-16T16:05:26;15.20;99.90
51996;DHT22;38010;53.264;6.592;2023-04-16T16:07:52;15.10;99.90
51996;DHT22;38010;53.264;6.592;2023-04-16T16:10:17;15.20;99.90
51996;DHT22;38010;53.264;6.592;2023-04-16T16:12:45;15.10;99.90
51996;DHT22;38010;53.264;6.592;2023-04-16T16:15:11;15.10;99.90
51996;DHT22;38010;53.264;6.592;2023-04-16T16:17:37;15.10;99.90
51996;DHT22;38010;53.264;6.592;2023-04-16T16:20:03;15.10;99.90
51996;DHT22;38010;53.264;6.592;2023-04-16T16:22:31;15.00;99.90
51996;DHT22;38010;53.264;6.592;2023-04-16T16:24:57;15.00;99.90
51996;DHT22;38010;53.264;6.592;2023-04-16T16:27:22;15.00;99.90
51996;DHT22;38010;53.264;6.592;2023-04-16T16:29:48;15.00;99.90
51996;DHT22;38010;53.264;6.592;2023-04-16T16:32:14;15.00;99.90
51996;DHT22;38010;53.264;6.592;2023-04-16T16:34:41;14.90;99.90
51996;DHT22;38010;53.264;6.592;2023-04-16T16:37:06;15.00;99.90
51996;DHT22;38010;53.264;6.592;2023-04-16T16:39:32;15.00;99.90
51996;DHT22;38010;53.264;6.592;2023-04-16T16:41:58;15.00;99.90
51996;DHT22;38010;53.264;6.592;2023-04-16T16:44:25;14.90;99.90
51996;DHT22;38010;53.264;6.592;2023-04-16T16:46:50;14.90;99.90
51996;DHT22;38010;53.264;6.592;2023-04-16T16:49:16;14.90;99.90
51996;DHT22;38010;53.264;6.592;2023-04-16T16:51:46;14.90;99.90
51996;DHT22;38010;53.264;6.592;2023-04-16T16:54:12;14.90;99.90
51996;DHT22;38010;53.264;6.592;2023-04-16T16:56:38;14.90;99.90
51996;DHT22;38010;53.264;6.592;2023-04-16T16:59:04;14.90;99.90
51996;DHT22;38010;53.264;6.592;2023-04-16T17:01:31;14.90;99.90
51996;DHT22;38010;53.264;6.592;2023-04-16T17:03:56;14.90;99.90
51996;DHT22;38010;53.264;6.592;2023-04-16T17:06:23;14.80;99.90
51996;DHT22;38010;53.264;6.592;2023-04-16T17:08:49;14.90;99.90
51996;DHT22;38010;53.264;6.592;2023-04-16T17:11:15;14.90;99.90
51996;DHT22;38010;53.264;6.592;2023-04-16T17:13:41;14.80;99.90
51996;DHT22;38010;53.264;6.592;2023-04-16T17:16:07;14.80;99.90
51996;DHT22;38010;53.264;6.592;2023-04-16T17:18:33;14.80;99.90
51996;DHT22;38010;53.264;6.592;2023-04-16T17:20:58;14.80;99.90
51996;DHT22;38010;53.264;6.592;2023-04-16T17:23:24;14.80;99.90
51996;DHT22;38010;53.264;6.592;2023-04-16T17:25:50;14.80;99.90
51996;DHT22;38010;53.264;6.592;2023-04-16T17:28:16;14.80;99.90
51996;DHT22;38010;53.264;6.592;2023-04-16T17:30:42;14.80;99.90
51996;DHT22;38010;53.264;6.592;2023-04-16T17:33:08;14.80;99.90
51996;DHT22;38010;53.264;6.592;2023-04-16T17:35:33;14.80;99.90
51996;DHT22;38010;53.264;6.592;2023-04-16T17:37:59;14.80;99.90
51996;DHT22;38010;53.264;6.592;2023-04-16T17:40:25;14.70;99.90
51996;DHT22;38010;53.264;6.592;2023-04-16T17:42:51;14.70;99.90
51996;DHT22;38010;53.264;6.592;2023-04-16T17:45:17;14.70;99.90
51996;DHT22;38010;53.264;6.592;2023-04-16T17:47:45;14.70;99.90
51996;DHT22;38010;53.264;6.592;2023-04-16T17:50:11;14.70;99.90
51996;DHT22;38010;53.264;6.592;2023-04-16T17:52:37;14.80;99.90
51996;DHT22;38010;53.264;6.592;2023-04-16T17:55:04;14.70;99.90
51996;DHT22;38010;53.264;6.592;2023-04-16T17:57:30;14.70;99.90
51996;DHT22;38010;53.264;6.592;2023-04-16T18:00:12;14.70;99.90
51996;DHT22;38010;53.264;6.592;2023-04-16T18:02:44;14.70;99.90
51996;DHT22;38010;53.264;6.592;2023-04-16T18:05:09;14.70;99.90
51996;DHT22;38010;53.264;6.592;2023-04-16T18:07:35;14.70;99.90
51996;DHT22;38010;53.264;6.592;2023-04-16T18:10:02;14.70;99.90
51996;DHT22;38010;53.264;6.592;2023-04-16T18:12:27;14.70;99.90
51996;DHT22;38010;53.264;6.592;2023-04-16T18:14:53;14.70;99.90
51996;DHT22;38010;53.264;6.592;2023-04-16T18:17:19;14.70;99.90
51996;DHT22;38010;53.264;6.592;2023-04-16T18:19:47;14.70;99.90
51996;DHT22;38010;53.264;6.592;2023-04-16T18:22:13;14.70;99.90
51996;DHT22;38010;53.264;6.592;2023-04-16T18:24:38;14.60;99.90
51996;DHT22;38010;53.264;6.592;2023-04-16T18:27:04;14.70;99.90
51996;DHT22;38010;53.264;6.592;2023-04-16T18:29:30;14.70;99.90
51996;DHT22;38010;53.264;6.592;2023-04-16T18:31:56;14.70;99.90
51996;DHT22;38010;53.264;6.592;2023-04-16T18:34:22;14.70;99.90
51996;DHT22;38010;53.264;6.592;2023-04-16T18:36:48;14.60;99.90
51996;DHT22;38010;53.264;6.592;2023-04-16T18:39:13;14.60;99.90
51996;DHT22;38010;53.264;6.592;2023-04-16T18:41:39;14.60;99.90
51996;DHT22;38010;53.264;6.592;2023-04-16T18:44:06;14.60;99.90
51996;DHT22;38010;53.264;6.592;2023-04-16T18:46:31;14.60;99.90
51996;DHT22;38010;53.264;6.592;2023-04-16T18:48:57;14.60;99.90
51996;DHT22;38010;53.264;6.592;2023-04-16T18:51:26;14.60;99.90
51996;DHT22;38010;53.264;6.592;2023-04-16T18:53:51;14.60;99.90
51996;DHT22;38010;53.264;6.592;2023-04-16T18:56:17;14.60;99.90
51996;DHT22;38010;53.264;6.592;2023-04-16T18:58:43;14.60;99.90
51996;DHT22;38010;53.264;6.592;2023-04-16T19:01:09;14.60;99.90
51996;DHT22;38010;53.264;6.592;2023-04-16T19:03:37;14.60;99.90
51996;DHT22;38010;53.264;6.592;2023-04-16T19:06:03;14.60;99.90
51996;DHT22;38010;53.264;6.592;2023-04-16T19:08:29;14.60;99.90
51996;DHT22;38010;53.264;6.592;2023-04-16T19:10:55;14.50;99.90
51996;DHT22;38010;53.264;6.592;2023-04-16T19:13:20;14.50;99.90
51996;DHT22;38010;53.264;6.592;2023-04-16T19:15:46;14.60;99.90
51996;DHT22;38010;53.264;6.592;2023-04-16T19:18:12;14.60;99.90
51996;DHT22;38010;53.264;6.592;2023-04-16T19:20:37;14.60;99.90
51996;DHT22;38010;53.264;6.592;2023-04-16T19:23:04;14.50;99.90
51996;DHT22;38010;53.264;6.592;2023-04-16T19:25:37;14.50;99.90
51996;DHT22;38010;53.264;6.592;2023-04-16T19:28:03;14.60;99.90